createdAt,value
2022-12-23T00:00:42.676Z,10.10
2022-12-23T00:03:09.841Z,10.10
2022-12-23T00:05:40.904Z,10.10
2022-12-23T00:08:08.312Z,10.10
2022-12-23T00:10:38.801Z,10.10
2022-12-23T00:13:28.261Z,10.10
2022-12-23T00:16:02.695Z,10.10
2022-12-23T00:18:29.517Z,10.10
2022-12-23T00:21:08.601Z,10.00
2022-12-23T00:23:38.707Z,10.00
2022-12-23T00:26:06.186Z,10.10
2022-12-23T00:28:33.635Z,10.10
2022-12-23T00:31:03.676Z,10.10
2022-12-23T00:33:33.106Z,10.10
2022-12-23T00:36:00.795Z,10.10
2022-12-23T00:38:46.651Z,10.10
2022-12-23T00:41:37.531Z,10.00
2022-12-23T00:44:05.139Z,10.10
2022-12-23T00:46:32.571Z,10.20
2022-12-23T00:49:18.297Z,10.10
2022-12-23T00:51:45.003Z,10.10
2022-12-23T00:54:11.725Z,10.10
2022-12-23T00:56:38.659Z,10.10
2022-12-23T00:59:05.527Z,10.10
2022-12-23T01:02:04.802Z,10.10
2022-12-23T01:04:50.618Z,10.10
2022-12-23T01:07:17.388Z,10.10
2022-12-23T01:09:44.135Z,10.10
2022-12-23T01:12:10.904Z,10.10
2022-12-23T01:14:38.125Z,10.10
2022-12-23T01:17:06.501Z,10.10
2022-12-23T01:19:33.450Z,10.10
2022-12-23T01:22:00.242Z,10.10
2022-12-23T01:24:31.621Z,10.10
2022-12-23T01:26:58.763Z,10.10
2022-12-23T01:29:26.000Z,10.00
2022-12-23T01:31:52.799Z,10.10
2022-12-23T01:34:19.738Z,10.10
2022-12-23T01:36:46.572Z,10.10
2022-12-23T01:39:13.293Z,10.10
2022-12-23T01:41:58.697Z,10.10
2022-12-23T01:44:56.268Z,10.10
2022-12-23T01:47:28.763Z,10.10
2022-12-23T01:50:01.503Z,10.10
2022-12-23T01:52:29.415Z,10.10
2022-12-23T01:54:57.067Z,10.10
2022-12-23T01:57:24.524Z,10.10
2022-12-23T02:00:10.203Z,10.20
2022-12-23T02:02:57.086Z,10.10
2022-12-23T02:05:24.422Z,10.10
2022-12-23T02:08:11.811Z,10.10
2022-12-23T02:11:01.797Z,10.10
2022-12-23T02:14:04.355Z,10.10
2022-12-23T02:16:38.406Z,10.10
2022-12-23T02:19:16.196Z,10.10
2022-12-23T02:22:09.489Z,10.00
2022-12-23T02:24:42.141Z,10.00
2022-12-23T02:27:24.195Z,10.10
2022-12-23T02:30:30.251Z,10.10
2022-12-23T02:33:16.921Z,10.00
2022-12-23T02:36:13.227Z,10.10
2022-12-23T02:38:46.271Z,10.10
2022-12-23T02:41:38.401Z,10.10
2022-12-23T02:44:32.252Z,10.10
2022-12-23T02:47:10.096Z,10.00
2022-12-23T02:49:48.935Z,10.10
2022-12-23T02:52:18.406Z,10.10
2022-12-23T02:54:54.350Z,10.10
2022-12-23T02:57:27.034Z,10.10
2022-12-23T02:59:54.910Z,10.10
2022-12-23T03:02:21.846Z,10.10
2022-12-23T03:04:48.782Z,10.10
2022-12-23T03:07:27.787Z,10.10
2022-12-23T03:10:18.698Z,10.10
2022-12-23T03:13:02.727Z,10.10
2022-12-23T03:15:38.643Z,10.00
2022-12-23T03:18:31.388Z,10.10
2022-12-23T03:21:06.742Z,10.10
2022-12-23T03:23:42.493Z,10.10
2022-12-23T03:26:16.681Z,10.10
2022-12-23T03:29:05.903Z,10.10
2022-12-23T03:31:34.709Z,10.10
2022-12-23T03:34:06.349Z,10.10
2022-12-23T03:36:38.396Z,10.10
2022-12-23T03:39:09.762Z,10.10
2022-12-23T03:41:43.672Z,10.10
2022-12-23T03:44:19.131Z,10.10
2022-12-23T03:47:09.824Z,10.10
2022-12-23T03:49:46.604Z,10.00
2022-12-23T03:52:21.652Z,10.00
2022-12-23T03:54:57.946Z,10.00
2022-12-23T03:57:51.271Z,10.00
2022-12-23T04:00:18.228Z,10.00
2022-12-23T04:02:57.955Z,10.10
2022-12-23T04:05:33.293Z,10.00
2022-12-23T04:08:31.377Z,10.00
2022-12-23T04:10:58.746Z,10.00
2022-12-23T04:13:27.551Z,9.90
2022-12-23T04:15:54.693Z,10.00
2022-12-23T04:18:21.480Z,10.00
2022-12-23T04:20:48.279Z,10.00
2022-12-23T04:23:15.079Z,10.00
2022-12-23T04:25:41.867Z,10.00
2022-12-23T04:28:08.567Z,10.00
2022-12-23T04:30:35.279Z,10.00
2022-12-23T04:33:02.563Z,10.00
2022-12-23T04:35:29.815Z,10.00
2022-12-23T04:37:56.817Z,10.00
2022-12-23T04:40:23.738Z,10.00
2022-12-23T04:42:50.474Z,9.90
2022-12-23T04:45:17.247Z,9.90
2022-12-23T04:47:43.997Z,10.00
2022-12-23T04:50:14.694Z,10.00
2022-12-23T04:52:42.009Z,9.90
2022-12-23T04:55:09.183Z,9.90
2022-12-23T04:57:35.899Z,10.00
2022-12-23T05:00:04.087Z,9.90
2022-12-23T05:02:30.894Z,10.00
2022-12-23T05:04:57.718Z,9.90
2022-12-23T05:07:24.402Z,10.00
2022-12-23T05:09:51.087Z,10.00
2022-12-23T05:12:17.756Z,9.90
2022-12-23T05:14:44.491Z,10.00
2022-12-23T05:17:11.173Z,10.00
2022-12-23T05:19:37.984Z,9.90
2022-12-23T05:22:04.675Z,9.90
2022-12-23T05:24:31.359Z,9.90
2022-12-23T05:27:00.414Z,9.90
2022-12-23T05:29:27.666Z,9.90
2022-12-23T05:31:54.639Z,9.90
2022-12-23T05:34:21.645Z,9.90
2022-12-23T05:36:48.457Z,9.90
2022-12-23T05:39:15.182Z,9.80
2022-12-23T05:41:41.893Z,9.90
2022-12-23T05:44:08.575Z,9.90
2022-12-23T05:46:35.362Z,9.90
2022-12-23T05:49:02.160Z,9.80
2022-12-23T05:51:28.847Z,9.90
2022-12-23T05:53:55.549Z,9.90
2022-12-23T05:56:22.242Z,9.80
2022-12-23T05:58:48.935Z,9.80
2022-12-23T06:01:15.626Z,9.90
2022-12-23T06:03:42.404Z,9.80
2022-12-23T06:06:09.187Z,9.80
2022-12-23T06:08:35.910Z,9.80
2022-12-23T06:11:05.500Z,9.80
2022-12-23T06:13:32.225Z,9.80
2022-12-23T06:15:58.949Z,9.80
2022-12-23T06:18:25.650Z,9.80
2022-12-23T06:20:52.377Z,9.80
2022-12-23T06:23:19.126Z,9.80
2022-12-23T06:25:45.807Z,9.70
2022-12-23T06:28:12.520Z,9.80
2022-12-23T06:30:39.206Z,9.80
2022-12-23T06:33:05.915Z,9.70
2022-12-23T06:35:32.617Z,9.80
2022-12-23T06:37:59.331Z,9.70
2022-12-23T06:40:26.063Z,9.70
2022-12-23T06:42:52.802Z,9.70
2022-12-23T06:45:19.502Z,9.80
2022-12-23T06:47:46.234Z,9.80
2022-12-23T06:50:13.090Z,9.80
2022-12-23T06:52:39.777Z,9.80
2022-12-23T06:55:06.786Z,9.70
2022-12-23T06:57:33.574Z,9.60
2022-12-23T07:00:00.268Z,9.60
2022-12-23T07:02:27.131Z,9.60
2022-12-23T07:04:53.911Z,9.60
2022-12-23T07:07:20.777Z,9.60
2022-12-23T07:09:47.541Z,9.60
2022-12-23T07:12:14.241Z,9.70
2022-12-23T07:14:40.909Z,9.70
2022-12-23T07:17:07.716Z,9.70
2022-12-23T07:19:34.435Z,9.70
2022-12-23T07:22:01.820Z,9.80
2022-12-23T07:24:28.618Z,9.80
2022-12-23T07:26:56.064Z,9.70
2022-12-23T07:29:22.877Z,9.70
2022-12-23T07:31:49.681Z,9.70
2022-12-23T07:34:16.441Z,9.70
2022-12-23T07:36:43.143Z,9.70
2022-12-23T07:39:10.120Z,9.70
2022-12-23T07:41:36.991Z,9.70
2022-12-23T07:44:03.859Z,9.70
2022-12-23T07:46:30.827Z,9.60
2022-12-23T07:48:57.545Z,9.70
2022-12-23T07:51:24.262Z,9.70
2022-12-23T07:53:51.355Z,9.70
2022-12-23T07:56:18.729Z,9.70
2022-12-23T07:58:49.409Z,9.70
2022-12-23T08:01:16.498Z,9.70
2022-12-23T08:03:43.417Z,9.70
2022-12-23T08:06:12.712Z,9.70
2022-12-23T08:08:41.437Z,9.70
2022-12-23T08:11:10.139Z,9.70
2022-12-23T08:13:39.064Z,9.70
2022-12-23T08:16:06.503Z,9.70
2022-12-23T08:18:38.299Z,9.80
2022-12-23T08:21:07.831Z,9.70
2022-12-23T08:23:35.095Z,9.80
2022-12-23T08:26:13.162Z,9.80
2022-12-23T08:28:41.522Z,9.80
2022-12-23T08:31:11.951Z,9.70
2022-12-23T08:33:40.221Z,9.70
2022-12-23T08:36:08.869Z,9.70
2022-12-23T08:38:36.258Z,9.70
2022-12-23T08:41:04.142Z,9.80
2022-12-23T08:43:35.856Z,9.70
2022-12-23T08:46:03.546Z,9.70
2022-12-23T08:48:30.620Z,9.70
2022-12-23T08:50:57.374Z,9.70
2022-12-23T08:53:24.092Z,9.70
2022-12-23T08:55:50.822Z,9.80
2022-12-23T08:58:17.855Z,9.80
2022-12-23T09:00:44.559Z,9.80
2022-12-23T09:03:11.315Z,9.80
2022-12-23T09:05:42.233Z,9.80
2022-12-23T09:08:09.686Z,9.90
2022-12-23T09:10:44.596Z,9.90
2022-12-23T09:13:16.349Z,9.90
2022-12-23T09:15:49.169Z,9.90
2022-12-23T09:18:15.925Z,9.90
2022-12-23T09:20:42.610Z,9.90
2022-12-23T09:23:09.335Z,10.00
2022-12-23T09:25:37.007Z,10.00
2022-12-23T09:28:06.057Z,9.90
2022-12-23T09:30:33.202Z,9.90
2022-12-23T09:32:59.930Z,10.00
2022-12-23T09:35:26.661Z,9.90
2022-12-23T09:37:53.398Z,10.00
2022-12-23T09:40:21.764Z,10.00
2022-12-23T09:43:16.174Z,10.00
2022-12-23T09:45:54.891Z,10.00
2022-12-23T09:48:26.685Z,10.00
2022-12-23T09:50:54.004Z,10.00
2022-12-23T09:53:34.221Z,10.00
2022-12-23T09:56:08.938Z,10.00
2022-12-23T09:59:14.117Z,10.00
2022-12-23T10:01:45.134Z,10.00
2022-12-23T10:04:39.498Z,10.00
2022-12-23T10:07:06.173Z,10.00
2022-12-23T10:09:37.503Z,9.90
2022-12-23T10:12:15.624Z,9.90
2022-12-23T10:14:44.115Z,10.00
2022-12-23T10:17:20.832Z,10.00
2022-12-23T10:19:49.380Z,10.00
2022-12-23T10:22:24.536Z,10.00
2022-12-23T10:24:51.764Z,10.10
2022-12-23T10:27:32.457Z,10.20
2022-12-23T10:33:36.286Z,10.20
2022-12-23T10:36:16.379Z,10.20
2022-12-23T10:39:05.723Z,10.20
2022-12-23T10:41:48.452Z,10.20
2022-12-23T10:44:33.980Z,10.20
2022-12-23T10:47:38.451Z,10.20
2022-12-23T10:50:23.601Z,10.10
2022-12-23T10:52:50.927Z,10.10
2022-12-23T10:55:33.215Z,10.20
2022-12-23T10:58:08.319Z,10.20
2022-12-23T11:00:38.952Z,10.20
2022-12-23T11:03:21.333Z,10.10
2022-12-23T11:05:51.267Z,10.10
2022-12-23T11:08:19.965Z,10.10
2022-12-23T11:10:47.281Z,10.10
2022-12-23T11:13:38.443Z,10.10
2022-12-23T11:16:34.310Z,10.10
2022-12-23T11:19:06.855Z,10.10
2022-12-23T11:21:33.929Z,10.10
2022-12-23T11:24:20.184Z,10.10
2022-12-23T11:26:50.488Z,10.30
2022-12-23T11:29:35.376Z,10.40
2022-12-23T11:32:05.264Z,10.40
2022-12-23T11:34:37.783Z,10.40
2022-12-23T11:37:07.465Z,10.50
2022-12-23T11:39:36.875Z,10.50
2022-12-23T11:42:17.079Z,10.60
2022-12-23T11:44:50.664Z,10.60
2022-12-23T11:47:23.459Z,10.50
2022-12-23T11:50:03.165Z,10.50
2022-12-23T11:52:31.702Z,10.40
2022-12-23T11:55:04.614Z,10.40
2022-12-23T11:57:46.428Z,10.30
2022-12-23T12:00:27.474Z,10.20
2022-12-23T12:02:58.310Z,10.20
2022-12-23T12:05:38.226Z,10.20
2022-12-23T12:08:12.063Z,10.10
2022-12-23T12:10:40.507Z,10.10
2022-12-23T12:13:30.228Z,10.00
2022-12-23T12:16:05.960Z,10.00
2022-12-23T12:18:33.815Z,10.00
2022-12-23T12:21:05.712Z,9.90
2022-12-23T12:23:45.432Z,9.90
2022-12-23T12:26:25.781Z,9.90
2022-12-23T12:29:00.772Z,9.90
2022-12-23T12:31:37.366Z,9.90
2022-12-23T12:34:32.028Z,10.00
2022-12-23T12:37:08.914Z,9.90
2022-12-23T12:39:43.631Z,10.00
2022-12-23T12:42:15.767Z,10.00
2022-12-23T12:45:03.452Z,10.00
2022-12-23T12:47:56.620Z,10.00
2022-12-23T12:50:33.377Z,9.90
2022-12-23T12:53:12.122Z,10.00
2022-12-23T12:55:46.215Z,10.00
2022-12-23T12:58:19.718Z,10.00
2022-12-23T13:01:02.082Z,9.90
2022-12-23T13:04:02.791Z,9.90
2022-12-23T13:06:45.536Z,9.90
2022-12-23T13:09:37.218Z,9.80
2022-12-23T13:12:29.293Z,9.90
2022-12-23T13:15:03.098Z,9.90
2022-12-23T13:17:39.163Z,9.80
2022-12-23T13:20:49.328Z,9.90
2022-12-23T13:23:45.183Z,9.80
2022-12-23T13:26:32.966Z,9.80
2022-12-23T13:29:37.107Z,9.80
2022-12-23T13:32:31.001Z,9.80
2022-12-23T13:35:27.486Z,9.70
2022-12-23T13:38:23.593Z,9.70
2022-12-23T13:41:12.049Z,9.70
2022-12-23T13:43:53.814Z,9.70
2022-12-23T13:46:55.011Z,9.60
2022-12-23T13:49:40.361Z,9.60
2022-12-23T13:52:20.804Z,9.60
2022-12-23T13:55:03.458Z,9.60
2022-12-23T13:57:49.660Z,9.60
2022-12-23T14:00:19.461Z,9.60
2022-12-23T14:02:49.003Z,9.60
2022-12-23T14:05:27.941Z,9.60
2022-12-23T14:07:54.913Z,9.50
2022-12-23T14:10:24.279Z,9.60
2022-12-23T14:12:53.110Z,9.60
2022-12-23T14:15:46.265Z,9.50
2022-12-23T14:18:30.678Z,9.50
2022-12-23T14:21:20.071Z,9.50
2022-12-23T14:24:19.881Z,9.60
2022-12-23T14:27:08.312Z,9.50
2022-12-23T14:30:03.161Z,9.60
2022-12-23T14:32:44.107Z,9.60
2022-12-23T14:35:22.549Z,9.60
2022-12-23T14:38:10.683Z,9.70
2022-12-23T14:40:37.360Z,9.60
2022-12-23T14:43:22.607Z,9.70
2022-12-23T14:46:01.468Z,9.70
2022-12-23T14:48:34.226Z,9.70
2022-12-23T14:51:10.964Z,9.70
2022-12-23T14:53:57.611Z,9.80
2022-12-23T14:56:39.743Z,9.90
2022-12-23T14:59:49.299Z,10.10
2022-12-23T15:02:22.504Z,10.20
2022-12-23T15:04:57.938Z,10.30
2022-12-23T15:07:37.617Z,10.50
2022-12-23T15:10:23.240Z,10.70
2022-12-23T15:12:57.006Z,10.90
2022-12-23T15:15:27.237Z,11.10
2022-12-23T15:18:04.421Z,11.20
2022-12-23T15:20:31.174Z,11.30
2022-12-23T15:23:02.035Z,11.40
2022-12-23T15:25:31.519Z,11.40
2022-12-23T15:28:02.201Z,11.50
2022-12-23T15:30:34.030Z,11.50
2022-12-23T15:33:05.084Z,11.60
2022-12-23T15:35:35.689Z,11.60
2022-12-23T15:38:03.230Z,11.60
2022-12-23T15:40:36.002Z,11.70
2022-12-23T15:43:22.205Z,11.70
2022-12-23T15:45:49.144Z,11.70
2022-12-23T15:48:32.725Z,11.80
2022-12-23T15:51:05.653Z,11.70
2022-12-23T15:53:38.530Z,11.80
2022-12-23T15:56:11.129Z,11.80
2022-12-23T15:58:41.989Z,11.90
2022-12-23T16:01:14.588Z,11.90
2022-12-23T16:03:44.952Z,11.90
2022-12-23T16:06:22.993Z,11.90
2022-12-23T16:09:26.830Z,12.00
2022-12-23T16:11:59.689Z,12.00
2022-12-23T16:14:39.203Z,12.00
2022-12-23T16:17:09.002Z,12.00
2022-12-23T16:19:40.020Z,12.10
2022-12-23T16:22:27.243Z,12.10
2022-12-23T16:25:15.989Z,12.00
2022-12-23T16:27:58.826Z,12.10
2022-12-23T16:30:37.946Z,12.10
2022-12-23T16:33:21.791Z,12.10
2022-12-23T16:35:48.556Z,12.10
2022-12-23T16:38:20.977Z,12.00
2022-12-23T16:40:52.898Z,12.00
2022-12-23T16:43:20.766Z,12.00
2022-12-23T16:45:55.019Z,12.00
2022-12-23T16:48:39.314Z,12.00
2022-12-23T16:51:14.383Z,12.00
2022-12-23T16:53:41.093Z,11.90
2022-12-23T16:56:13.112Z,11.90
2022-12-23T16:58:39.834Z,12.00
2022-12-23T17:01:07.410Z,11.90
2022-12-23T17:03:34.176Z,12.00
2022-12-23T17:06:00.923Z,12.00
2022-12-23T17:08:27.665Z,11.90
2022-12-23T17:10:55.698Z,12.00
2022-12-23T17:13:22.525Z,11.90
2022-12-23T17:15:49.883Z,12.00
2022-12-23T17:18:18.434Z,12.00
2022-12-23T17:20:47.547Z,11.90
2022-12-23T17:23:30.627Z,11.90
2022-12-23T17:25:57.500Z,11.80
2022-12-23T17:28:30.909Z,11.80
2022-12-23T17:30:58.794Z,11.80
2022-12-23T17:33:30.051Z,11.70
2022-12-23T17:35:57.671Z,11.70
2022-12-23T17:38:24.788Z,11.70
2022-12-23T17:40:51.686Z,11.70
2022-12-23T17:43:18.911Z,11.70
2022-12-23T17:45:47.080Z,11.60
2022-12-23T17:48:20.618Z,11.70
2022-12-23T17:50:49.377Z,11.70
2022-12-23T17:53:17.760Z,11.60
2022-12-23T17:55:44.620Z,11.60
2022-12-23T17:58:11.787Z,11.60
2022-12-23T18:00:38.790Z,11.60
2022-12-23T18:03:06.346Z,11.60
2022-12-23T18:05:36.543Z,11.60
2022-12-23T18:08:03.668Z,11.60
2022-12-23T18:10:37.249Z,11.60
2022-12-23T18:13:07.927Z,11.60
2022-12-23T18:15:36.985Z,11.50
2022-12-23T18:18:24.075Z,11.60
2022-12-23T18:20:56.898Z,11.50
2022-12-23T18:23:29.032Z,11.50
2022-12-23T18:25:56.735Z,11.50
2022-12-23T18:28:24.531Z,11.50
2022-12-23T18:30:52.969Z,11.40
2022-12-23T18:33:19.824Z,11.40
2022-12-23T18:35:48.688Z,11.40
2022-12-23T18:38:16.231Z,11.40
2022-12-23T18:40:43.776Z,11.50
2022-12-23T18:43:21.670Z,11.40
2022-12-23T18:45:52.771Z,11.40
2022-12-23T18:48:21.408Z,11.30
2022-12-23T18:50:48.360Z,11.30
2022-12-23T18:53:25.365Z,11.20
2022-12-23T18:55:53.412Z,11.30
2022-12-23T18:58:20.437Z,11.20
2022-12-23T19:00:48.449Z,11.20
2022-12-23T19:03:27.164Z,11.20
2022-12-23T19:05:55.376Z,11.10
2022-12-23T19:08:26.828Z,11.10
2022-12-23T19:10:55.569Z,11.10
2022-12-23T19:13:22.647Z,11.10
2022-12-23T19:15:49.570Z,11.20
2022-12-23T19:18:18.549Z,11.10
2022-12-23T19:20:46.254Z,11.10
2022-12-23T19:23:14.526Z,11.10
2022-12-23T19:25:42.414Z,11.10
2022-12-23T19:28:09.777Z,11.00
2022-12-23T19:30:36.863Z,11.00
2022-12-23T19:33:03.779Z,11.10
2022-12-23T19:35:30.484Z,11.00
2022-12-23T19:37:57.289Z,11.00
2022-12-23T19:40:23.997Z,11.00
2022-12-23T19:42:50.673Z,11.00
2022-12-23T19:45:17.422Z,11.00
2022-12-23T19:47:44.243Z,11.00
2022-12-23T19:50:12.265Z,11.00
2022-12-23T19:52:38.972Z,11.10
2022-12-23T19:55:06.088Z,11.10
2022-12-23T19:57:33.550Z,11.00
2022-12-23T20:00:01.852Z,10.90
2022-12-23T20:02:28.992Z,10.90
2022-12-23T20:04:55.725Z,10.90
2022-12-23T20:07:22.402Z,10.90
2022-12-23T20:09:49.102Z,10.90
2022-12-23T20:12:16.034Z,10.90
2022-12-23T20:14:42.732Z,11.00
2022-12-23T20:17:09.409Z,11.00
2022-12-23T20:19:43.766Z,11.00
2022-12-23T20:22:12.584Z,11.00
2022-12-23T20:24:39.242Z,11.00
2022-12-23T20:27:10.907Z,11.00
2022-12-23T20:29:38.264Z,10.90
2022-12-23T20:32:05.247Z,10.90
2022-12-23T20:34:38.328Z,10.90
2022-12-23T20:37:06.587Z,11.00
2022-12-23T20:39:33.456Z,11.00
2022-12-23T20:42:00.288Z,11.00
2022-12-23T20:44:36.128Z,11.00
2022-12-23T20:47:04.581Z,10.90
2022-12-23T20:49:31.366Z,10.90
2022-12-23T20:51:58.054Z,10.90
2022-12-23T20:54:31.755Z,10.90
2022-12-23T20:56:59.239Z,11.00
2022-12-23T20:59:26.020Z,10.90
2022-12-23T21:01:52.926Z,11.00
2022-12-23T21:04:20.585Z,11.00
2022-12-23T21:06:47.592Z,11.00
2022-12-23T21:09:15.681Z,10.90
2022-12-23T21:11:44.596Z,10.80
2022-12-23T21:14:12.204Z,10.80
2022-12-23T21:16:40.086Z,10.80
2022-12-23T21:19:16.505Z,10.80
2022-12-23T21:21:43.245Z,10.80
2022-12-23T21:24:10.303Z,10.80
2022-12-23T21:26:37.089Z,10.80
2022-12-23T21:29:05.824Z,10.80
2022-12-23T21:31:34.890Z,10.70
2022-12-23T21:34:02.392Z,10.70
2022-12-23T21:36:31.924Z,10.80
2022-12-23T21:38:59.590Z,10.70
2022-12-23T21:41:29.988Z,10.70
2022-12-23T21:43:58.404Z,10.70
2022-12-23T21:46:26.527Z,10.70
2022-12-23T21:48:55.240Z,10.70
2022-12-23T21:51:24.691Z,10.70
2022-12-23T21:53:53.683Z,10.70
2022-12-23T21:56:28.853Z,10.70
2022-12-23T21:59:00.152Z,10.70
2022-12-23T22:01:27.405Z,10.70
2022-12-23T22:03:55.325Z,10.70
2022-12-23T22:06:24.338Z,10.60
2022-12-23T22:08:52.559Z,10.60
2022-12-23T22:11:31.009Z,10.60
2022-12-23T22:13:59.304Z,10.60
2022-12-23T22:16:27.772Z,10.60
2022-12-23T22:18:55.133Z,10.50
2022-12-23T22:21:24.048Z,10.50
2022-12-23T22:23:51.809Z,10.50
2022-12-23T22:26:25.145Z,10.40
2022-12-23T22:28:54.587Z,10.40
2022-12-23T22:31:49.179Z,10.50
2022-12-23T22:34:18.971Z,10.40
2022-12-23T22:36:46.091Z,10.40
2022-12-23T22:39:21.148Z,10.40
2022-12-23T22:41:49.902Z,10.50
2022-12-23T22:44:16.929Z,10.50
2022-12-23T22:46:43.872Z,10.40
2022-12-23T22:49:15.166Z,10.40
2022-12-23T22:51:42.504Z,10.50
2022-12-23T22:54:09.563Z,10.50
2022-12-23T22:56:36.580Z,10.50
2022-12-23T22:59:04.786Z,10.50
2022-12-23T23:01:34.205Z,10.50
2022-12-23T23:04:03.235Z,10.50
2022-12-23T23:06:31.515Z,10.50
2022-12-23T23:08:58.684Z,10.50
2022-12-23T23:11:27.227Z,10.50
2022-12-23T23:13:54.853Z,10.50
2022-12-23T23:16:23.784Z,10.50
2022-12-23T23:18:51.812Z,10.50
2022-12-23T23:21:19.143Z,10.50
2022-12-23T23:23:45.947Z,10.50
2022-12-23T23:26:13.474Z,10.50
2022-12-23T23:28:40.522Z,10.50
2022-12-23T23:33:55.288Z,10.40
2022-12-23T23:36:22.042Z,10.40
2022-12-23T23:38:48.793Z,10.40
2022-12-23T23:41:20.735Z,10.40
2022-12-23T23:43:49.853Z,10.40
2022-12-23T23:46:16.600Z,10.40
2022-12-23T23:48:43.413Z,10.30
2022-12-23T23:51:10.124Z,10.30
2022-12-23T23:53:36.861Z,10.30
2022-12-23T23:56:08.152Z,10.20
2022-12-23T23:58:35.975Z,10.20
